Time;durP1;ratioP1;P1;durP2;ratioP2;P2;SDS_P1;SDS_P2;PMS_P1;PMS_P2;Temp;Humidity;BMP_temperature;BMP_pressure;BME280_temperature;BME280_humidity;BME280_pressure;Samples;Min_cycle;Max_cycle;Signal;HPM_P1;HPM_P2
2022/03/19 00:01:22;;;;;;;63.50;40.03;;;6.10;99.90;;;;;;5052477;28;20214;-87
2022/03/19 00:03:50;;;;;;;63.90;38.67;;;;;;;;;;5061407;28;20260;-87
2022/03/19 00:06:17;;;;;;;60.30;40.20;;;;;;;;;;5072486;28;20230;-87
2022/03/19 00:08:44;;;;;;;61.47;39.47;;;;;;;;;;5072458;28;20226;-87
2022/03/19 00:11:12;;;;;;;57.22;37.88;;;6.70;96.00;;;;;;5072576;28;20298;-87
2022/03/19 00:13:39;;;;;;;58.47;40.13;;;5.90;99.90;;;;;;5072585;28;20237;-88
2022/03/19 00:16:06;;;;;;;61.90;39.50;;;;;;;;;;5072132;28;20200;-87
2022/03/19 00:18:34;;;;;;;65.63;37.85;;;6.00;96.70;;;;;;5071350;28;20238;-88
2022/03/19 00:21:01;;;;;;;60.40;39.28;;;6.00;99.90;;;;;;5072318;28;20230;-87
2022/03/19 00:23:28;;;;;;;62.88;38.95;;;5.80;99.90;;;;;;5072540;28;20248;-88
2022/03/19 00:25:54;;;;;;;65.70;39.45;;;5.90;99.90;;;;;;5072680;28;20298;-87
2022/03/19 00:28:23;;;;;;;65.90;39.45;;;5.90;95.70;;;;;;5072097;28;20203;-89
2022/03/19 00:30:50;;;;;;;57.53;37.97;;;6.30;99.90;;;;;;5071871;28;20227;-86
2022/03/19 00:33:17;;;;;;;56.72;36.17;;;;;;;;;;5072085;28;20231;-88
2022/03/19 00:35:44;;;;;;;61.97;40.13;;;5.80;99.90;;;;;;5071917;28;20306;-87
2022/03/19 00:38:11;;;;;;;63.40;38.08;;;;;;;;;;5071669;28;20300;-87
2022/03/19 00:40:38;;;;;;;65.45;41.35;;;5.30;99.90;;;;;;5062652;28;20227;-87
2022/03/19 00:43:04;;;;;;;62.45;40.53;;;5.70;99.90;;;;;;5051814;28;20302;-87
2022/03/19 00:45:33;;;;;;;59.25;39.10;;;5.70;95.80;;;;;;5051383;28;20689;-88
2022/03/19 00:48:00;;;;;;;54.15;35.72;;;5.60;98.90;;;;;;5051294;28;20207;-88
2022/03/19 00:50:27;;;;;;;66.93;38.67;;;5.70;99.90;;;;;;5051656;28;20310;-88
2022/03/19 00:52:54;;;;;;;58.42;38.13;;;5.70;99.90;;;;;;5051622;28;20208;-87
2022/03/19 00:55:21;;;;;;;60.78;38.17;;;5.70;99.90;;;;;;5051524;28;20250;-87
2022/03/19 00:57:48;;;;;;;54.95;36.25;;;6.40;99.70;;;;;;5051264;28;20211;-88
2022/03/19 01:00:23;;;;;;;57.88;38.20;;;5.80;99.90;;;;;;5051507;28;20235;-87
2022/03/19 01:02:52;;;;;;;58.08;36.45;;;5.80;99.90;;;;;;5052262;28;20207;-88
2022/03/19 01:05:19;;;;;;;66.68;38.72;;;5.60;99.90;;;;;;5071218;28;20254;-87
2022/03/19 01:07:48;;;;;;;58.88;37.63;;;5.40;99.90;;;;;;5070937;28;20682;-88
2022/03/19 01:10:19;;;;;;;58.85;36.70;;;5.80;99.90;;;;;;5071147;28;20212;-88
2022/03/19 01:12:47;;;;;;;59.83;38.50;;;5.80;99.90;;;;;;5071111;28;20230;-88
2022/03/19 01:15:16;;;;;;;57.97;37.22;;;5.60;99.90;;;;;;5071405;28;20191;-88
2022/03/19 01:17:43;;;;;;;59.60;36.80;;;5.60;99.90;;;;;;5070807;28;20199;-88
2022/03/19 01:20:13;;;;;;;58.13;35.60;;;5.60;99.90;;;;;;5071151;28;20234;-88
2022/03/19 01:22:42;;;;;;;53.85;35.65;;;5.60;99.90;;;;;;5070487;28;20215;-88
2022/03/19 01:25:11;;;;;;;58.05;36.95;;;5.60;97.90;;;;;;5070937;28;20203;-87
2022/03/19 01:27:40;;;;;;;55.53;37.15;;;5.40;99.90;;;;;;5070511;28;20199;-88
2022/03/19 01:30:11;;;;;;;51.50;33.50;;;5.50;99.90;;;;;;5070607;28;20694;-89
2022/03/19 01:32:40;;;;;;;53.75;35.03;;;5.60;99.90;;;;;;5070908;28;20195;-88
2022/03/19 01:35:08;;;;;;;56.58;36.53;;;5.50;99.90;;;;;;5070603;28;20203;-87
2022/03/19 01:37:37;;;;;;;54.95;35.38;;;6.20;99.90;;;;;;5070521;28;20203;-88
2022/03/19 01:40:06;;;;;;;54.15;35.80;;;5.50;99.90;;;;;;5066578;28;20195;-88
2022/03/19 01:42:34;;;;;;;58.45;37.20;;;5.00;99.90;;;;;;5050869;28;20200;-88
2022/03/19 01:45:02;;;;;;;63.45;37.58;;;5.40;99.90;;;;;;5050899;28;20196;-89
2022/03/19 01:47:30;;;;;;;53.30;35.40;;;5.50;99.90;;;;;;5050642;28;20215;-89
2022/03/19 01:49:57;;;;;;;55.92;33.58;;;;;;;;;;5050526;28;20212;-87
2022/03/19 01:52:25;;;;;;;58.92;35.13;;;5.60;99.90;;;;;;5050252;28;20211;-89
2022/03/19 01:54:54;;;;;;;59.13;37.38;;;5.40;99.90;;;;;;5050461;28;20208;-88
2022/03/19 01:57:24;;;;;;;62.90;37.30;;;5.50;94.60;;;;;;5050113;28;20196;-88
2022/03/19 01:59:52;;;;;;;55.47;36.75;;;5.40;99.80;;;;;;5050593;28;20192;-88
2022/03/19 02:02:19;;;;;;;55.35;35.85;;;5.40;99.90;;;;;;5050053;28;20199;-88
2022/03/19 02:04:47;;;;;;;52.63;35.88;;;5.40;99.90;;;;;;5067363;28;20195;-88
2022/03/19 02:07:14;;;;;;;55.20;34.08;;;5.30;99.90;;;;;;5070367;28;20285;-88
2022/03/19 02:09:42;;;;;;;57.92;38.03;;;5.20;96.20;;;;;;5070050;28;20215;-88
2022/03/19 02:12:11;;;;;;;57.47;34.63;;;5.20;99.90;;;;;;5052889;28;20202;-89
2022/03/19 02:14:40;;;;;;;55.95;35.83;;;5.20;99.90;;;;;;5050346;28;20204;-89
2022/03/19 02:17:09;;;;;;;56.45;37.50;;;5.20;94.60;;;;;;5049795;28;20287;-88
2022/03/19 02:19:47;;;;;;;51.33;33.13;;;5.10;99.00;;;;;;5049199;28;20248;-89
2022/03/19 02:22:15;;;;;;;54.55;35.00;;;5.20;99.90;;;;;;5050218;28;20200;-88
2022/03/19 02:27:29;;;;;;;59.78;34.75;;;;;;;;;;5050217;28;20191;-88
2022/03/19 02:29:57;;;;;;;64.95;35.83;;;5.10;99.90;;;;;;5050824;28;20581;-88
2022/03/19 02:32:26;;;;;;;52.53;35.20;;;5.20;94.60;;;;;;5050578;28;20200;-88
2022/03/19 02:34:54;;;;;;;57.67;35.55;;;;;;;;;;5049469;28;20687;-88
2022/03/19 02:37:22;;;;;;;59.88;35.03;;;5.20;99.90;;;;;;5048914;28;20204;-88
2022/03/19 02:39:50;;;;;;;52.60;34.55;;;5.20;99.90;;;;;;5050824;28;20610;-88
2022/03/19 02:42:21;;;;;;;56.15;33.92;;;5.20;94.20;;;;;;5072077;28;20195;-88
2022/03/19 02:44:49;;;;;;;55.17;34.65;;;5.10;99.90;;;;;;5074149;28;20199;-88
2022/03/19 02:47:16;;;;;;;53.75;33.80;;;5.10;99.90;;;;;;5073644;28;20195;-88
2022/03/19 02:49:43;;;;;;;54.63;36.25;;;5.10;99.90;;;;;;5073688;28;20198;-89
2022/03/19 02:52:10;;;;;;;55.03;34.53;;;4.90;99.90;;;;;;5074090;28;20210;-87
2022/03/19 02:54:38;;;;;;;48.63;32.70;;;5.00;99.90;;;;;;5074092;28;20211;-88
2022/03/19 02:57:06;;;;;;;50.88;33.55;;;5.20;99.90;;;;;;5074623;28;20199;-89
2022/03/19 02:59:34;;;;;;;52.00;34.53;;;2.00;92.70;;;;;;5076332;28;20206;-87
2022/03/19 03:02:05;;;;;;;48.33;31.95;;;4.90;99.90;;;;;;5075944;28;20264;-88
2022/03/19 03:04:33;;;;;;;56.53;34.17;;;5.00;94.00;;;;;;5073721;28;20209;-88
2022/03/19 03:07:02;;;;;;;49.67;33.47;;;5.00;99.90;;;;;;5073501;28;20731;-88
2022/03/19 03:09:30;;;;;;;52.75;35.08;;;4.90;99.90;;;;;;5073401;28;20686;-89
2022/03/19 03:11:58;;;;;;;51.63;33.30;;;4.60;94.80;;;;;;5073444;28;20206;-88
2022/03/19 03:14:26;;;;;;;54.58;34.58;;;4.90;94.10;;;;;;5073582;28;20230;-88
2022/03/19 03:16:54;;;;;;;52.10;35.15;;;4.90;99.90;;;;;;5073220;28;20214;-88
2022/03/19 03:19:21;;;;;;;46.33;32.88;;;4.60;99.90;;;;;;5073716;28;20209;-88
2022/03/19 03:21:49;;;;;;;54.30;32.58;;;4.90;99.90;;;;;;5072987;28;20254;-89
2022/03/19 03:24:16;;;;;;;51.00;32.92;;;5.50;99.90;;;;;;5072715;28;20192;-88
2022/03/19 03:26:44;;;;;;;49.55;33.85;;;4.50;99.90;;;;;;5072921;28;20211;-89
2022/03/19 03:29:14;;;;;;;48.80;33.42;;;5.50;99.90;;;;;;5073179;28;20715;-88
2022/03/19 03:31:42;;;;;;;51.22;33.90;;;4.80;99.90;;;;;;5073367;28;20215;-87
2022/03/19 03:34:10;;;;;;;51.15;33.85;;;;;;;;;;5074545;28;20298;-88
2022/03/19 03:36:36;;;;;;;49.08;34.13;;;5.10;99.90;;;;;;5073676;28;20292;-88
2022/03/19 03:39:04;;;;;;;51.50;32.55;;;;;;;;;;5073233;28;20207;-88
2022/03/19 03:41:31;;;;;;;44.15;30.70;;;4.90;93.60;;;;;;5056935;28;20220;-88
2022/03/19 03:43:58;;;;;;;48.40;30.63;;;4.90;99.90;;;;;;5053013;28;20310;-86
2022/03/19 03:46:25;;;;;;;47.13;32.05;;;4.90;99.90;;;;;;5052764;28;20231;-87
2022/03/19 03:48:53;;;;;;;53.85;31.92;;;4.90;94.10;;;;;;5052664;28;20227;-88
2022/03/19 03:51:20;;;;;;;44.97;30.25;;;4.90;99.90;;;;;;5052772;28;20783;-88
2022/03/19 03:53:47;;;;;;;45.72;31.08;;;5.50;99.90;;;;;;5052799;28;20204;-87
2022/03/19 03:56:14;;;;;;;47.30;30.17;;;4.80;93.80;;;;;;5052408;28;20208;-88
2022/03/19 03:58:41;;;;;;;57.72;34.90;;;4.80;99.90;;;;;;5053006;28;20290;-89
2022/03/19 04:01:08;;;;;;;46.20;31.17;;;4.90;99.90;;;;;;5052681;28;20206;-88
2022/03/19 04:03:35;;;;;;;45.78;31.25;;;4.60;99.90;;;;;;5059261;28;20203;-89
2022/03/19 04:06:04;;;;;;;48.92;30.55;;;4.80;93.70;;;;;;5072937;28;20203;-88
2022/03/19 04:08:31;;;;;;;51.47;32.15;;;4.70;93.70;;;;;;5072601;28;20294;-88
2022/03/19 04:10:58;;;;;;;50.35;31.27;;;4.70;95.50;;;;;;5072308;28;20538;-88
2022/03/19 04:13:25;;;;;;;49.47;31.65;;;5.20;99.90;;;;;;5072410;28;20203;-88
2022/03/19 04:15:52;;;;;;;50.05;31.48;;;4.70;99.90;;;;;;5072214;28;20245;-89
2022/03/19 04:18:19;;;;;;;47.53;32.22;;;5.50;99.90;;;;;;5071846;28;20296;-88
2022/03/19 04:20:45;;;;;;;50.03;33.38;;;4.70;93.80;;;;;;5072260;28;20226;-88
2022/03/19 04:23:15;;;;;;;51.72;34.00;;;4.50;99.90;;;;;;5071771;28;20238;-88
2022/03/19 04:25:42;;;;;;;45.03;32.42;;;4.70;99.90;;;;;;5072258;28;20203;-88
2022/03/19 04:28:11;;;;;;;47.35;30.35;;;4.70;93.70;;;;;;5071784;28;20207;-87
2022/03/19 04:30:40;;;;;;;52.22;31.23;;;4.50;99.90;;;;;;5071727;28;20740;-90
2022/03/19 04:33:07;;;;;;;50.70;30.92;;;4.40;99.90;;;;;;5072186;28;20620;-87
2022/03/19 04:38:22;;;;;;;53.10;31.83;;;4.10;99.90;;;;;;5071862;28;20195;-88
2022/03/19 04:40:50;;;;;;;49.67;33.47;;;4.30;99.90;;;;;;5062120;28;20227;-87
2022/03/19 04:43:17;;;;;;;46.20;28.08;;;5.00;99.90;;;;;;5052477;28;20215;-89
2022/03/19 04:45:45;;;;;;;49.08;32.38;;;4.20;99.90;;;;;;5052490;28;20200;-89
2022/03/19 04:48:12;;;;;;;50.47;31.27;;;4.00;99.90;;;;;;5052183;28;20287;-88
2022/03/19 04:50:40;;;;;;;44.33;29.45;;;4.40;99.90;;;;;;5052450;28;20644;-89
2022/03/19 04:53:07;;;;;;;46.70;30.25;;;4.00;99.90;;;;;;5051962;28;20215;-88
2022/03/19 04:55:36;;;;;;;49.97;32.40;;;4.00;99.90;;;;;;5052059;28;20397;-90
2022/03/19 04:58:03;;;;;;;43.67;29.58;;;4.00;99.90;;;;;;5052401;28;20243;-89
2022/03/19 05:00:31;;;;;;;49.40;31.55;;;4.10;94.30;;;;;;5052506;28;20223;-89
2022/03/19 05:02:58;;;;;;;41.33;28.92;;;4.10;99.90;;;;;;5054072;28;20208;-88
2022/03/19 05:05:25;;;;;;;49.00;30.98;;;4.20;94.20;;;;;;5071707;28;20237;-88
2022/03/19 05:07:53;;;;;;;43.42;31.05;;;4.00;99.90;;;;;;5071706;28;20207;-89
2022/03/19 05:13:06;;;;;;;49.70;29.77;;;3.80;99.90;;;;;;5072204;28;20199;-89
2022/03/19 05:15:32;;;;;;;47.22;28.58;;;3.90;94.20;;;;;;5072217;28;20249;-89
2022/03/19 05:17:59;;;;;;;46.75;30.40;;;3.50;99.90;;;;;;5071361;28;20731;-89
2022/03/19 05:20:27;;;;;;;39.92;29.02;;;3.70;99.90;;;;;;5072240;28;20203;-89
2022/03/19 05:22:55;;;;;;;46.83;29.13;;;3.70;99.90;;;;;;5070997;28;20207;-88
2022/03/19 05:25:22;;;;;;;42.85;29.17;;;3.70;99.90;;;;;;5071284;28;20663;-89
2022/03/19 05:27:48;;;;;;;42.75;29.88;;;3.70;94.30;;;;;;5071417;28;20203;-88
2022/03/19 05:30:17;;;;;;;45.40;29.10;;;3.70;99.90;;;;;;5071465;28;20230;-89
2022/03/19 05:32:44;;;;;;;45.42;30.08;;;4.20;99.90;;;;;;5072027;28;20202;-89
2022/03/19 05:35:11;;;;;;;45.97;31.17;;;3.10;99.90;;;;;;5070948;28;20643;-88
2022/03/19 05:37:40;;;;;;;41.05;28.70;;;3.90;94.40;;;;;;5071259;28;20235;-88
2022/03/19 05:40:08;;;;;;;45.55;29.50;;;4.20;99.90;;;;;;5067086;28;20193;-89
2022/03/19 05:42:36;;;;;;;50.38;30.45;;;4.00;93.80;;;;;;5051835;28;20200;-88
2022/03/19 05:45:03;;;;;;;42.60;30.02;;;4.20;99.90;;;;;;5051963;28;20218;-88
2022/03/19 05:47:31;;;;;;;45.20;29.95;;;4.20;99.90;;;;;;5051919;28;20204;-88
2022/03/19 05:49:58;;;;;;;47.17;29.65;;;4.00;93.50;;;;;;5051406;28;20269;-87
2022/03/19 05:52:25;;;;;;;45.90;30.08;;;;;;;;;;5051518;28;20627;-88
2022/03/19 05:54:52;;;;;;;44.33;28.05;;;4.50;99.90;;;;;;5059953;28;20287;-89
2022/03/19 05:57:19;;;;;;;41.38;27.88;;;3.80;99.90;;;;;;5060433;28;20187;-89
2022/03/19 05:59:46;;;;;;;46.17;29.60;;;3.90;99.90;;;;;;5061872;28;20223;-89
2022/03/19 06:02:13;;;;;;;48.70;30.20;;;3.70;99.90;;;;;;5059901;28;20290;-88
2022/03/19 06:04:41;;;;;;;42.15;29.52;;;3.70;99.90;;;;;;5059598;28;20254;-88
2022/03/19 06:07:08;;;;;;;47.97;29.95;;;3.70;94.70;;;;;;5059580;28;20207;-87
2022/03/19 06:09:35;;;;;;;38.90;27.17;;;4.20;99.90;;;;;;5061042;28;20196;-88
2022/03/19 06:12:10;;;;;;;43.10;31.23;;;4.00;93.60;;;;;;5061817;28;20246;-88
2022/03/19 06:14:38;;;;;;;43.13;30.17;;;;;;;;;;5060750;28;20225;-88
2022/03/19 06:17:05;;;;;;;51.28;30.77;;;4.10;99.90;;;;;;5061563;28;20257;-88
2022/03/19 06:19:32;;;;;;;45.25;29.75;;;4.00;99.90;;;;;;5061283;28;20250;-87
2022/03/19 06:22:00;;;;;;;44.25;28.63;;;4.20;99.90;;;;;;5059265;28;20204;-88
2022/03/19 06:24:28;;;;;;;48.38;30.77;;;;;;;;;;5060907;28;20278;-88
2022/03/19 06:26:55;;;;;;;41.35;27.35;;;4.30;99.90;;;;;;5061142;28;20223;-87
2022/03/19 06:29:23;;;;;;;45.65;28.40;;;4.60;99.90;;;;;;5059127;28;20654;-87
2022/03/19 06:31:50;;;;;;;41.88;26.95;;;4.50;99.90;;;;;;5060125;28;20685;-89
2022/03/19 06:34:21;;;;;;;46.28;31.15;;;;;;;;;;5061528;28;20204;-86
2022/03/19 06:39:37;;;;;;;43.55;28.23;;;8.10;94.70;;;;;;5064260;28;20195;-88
2022/03/19 06:42:05;;;;;;;47.10;30.52;;;;;;;;;;5061246;28;20226;-88
2022/03/19 06:44:33;;;;;;;45.83;28.58;;;;;;;;;;5059882;28;20279;-88
2022/03/19 06:47:00;;;;;;;46.20;31.38;;;4.50;99.90;;;;;;5057964;28;20249;-87
2022/03/19 06:49:28;;;;;;;43.22;30.05;;;4.50;99.90;;;;;;5058860;28;20254;-87
2022/03/19 06:51:55;;;;;;;42.95;28.38;;;4.80;99.90;;;;;;5058912;28;20247;-88
2022/03/19 06:54:32;;;;;;;47.92;30.98;;;;;;;;;;5063416;28;20195;-88
2022/03/19 06:57:04;;;;;;;46.53;29.60;;;;;;;;;;5070597;28;20282;-87
2022/03/19 06:59:31;;;;;;;41.35;30.23;;;4.50;93.40;;;;;;5070702;28;20231;-86
2022/03/19 07:02:07;;;;;;;49.47;33.25;;;;;;;;;;5070216;28;20197;-87
2022/03/19 07:04:34;;;;;;;43.97;30.17;;;;;;;;;;5055421;28;20283;-87
2022/03/19 07:07:04;;;;;;;49.47;31.13;;;;;;;;;;5049923;28;20671;-87
2022/03/19 07:09:32;;;;;;;44.08;30.60;;;;;;;;;;5050811;28;20200;-85
2022/03/19 07:12:06;;;;;;;40.38;29.25;;;;;;;;;;5050054;28;20265;-86
2022/03/19 07:14:35;;;;;;;40.25;29.95;;;;;;;;;;5050640;28;20253;-86
2022/03/19 07:17:09;;;;;;;39.28;30.05;;;;;;;;;;5050090;28;20706;-88
2022/03/19 07:19:42;;;;;;;48.60;30.10;;;;;;;;;;5050548;28;20606;-86
2022/03/19 07:22:08;;;;;;;40.15;29.15;;;5.20;99.90;;;;;;5050372;28;20250;-87
2022/03/19 07:24:36;;;;;;;40.53;27.70;;;6.20;99.90;;;;;;5050711;28;20208;-86
2022/03/19 07:27:06;;;;;;;39.67;28.27;;;6.00;99.30;;;;;;5050664;28;20206;-87
2022/03/19 07:29:34;;;;;;;46.10;28.92;;;5.90;99.90;;;;;;5054148;28;20204;-86
2022/03/19 07:32:01;;;;;;;37.58;27.90;;;5.90;99.90;;;;;;5053569;28;20228;-87
2022/03/19 07:34:29;;;;;;;44.92;30.00;;;;;;;;;;5056523;28;20192;-85
2022/03/19 07:37:08;;;;;;;43.80;28.98;;;6.10;88.30;;;;;;5062467;28;20261;-85
2022/03/19 07:39:35;;;;;;;42.08;29.73;;;5.70;99.90;;;;;;5061486;28;20200;-85
2022/03/19 07:42:01;;;;;;;42.00;27.60;;;6.30;99.40;;;;;;5073283;28;20231;-85
2022/03/19 07:44:30;;;;;;;42.57;29.70;;;6.30;96.50;;;;;;5063939;28;20226;-85
2022/03/19 07:47:00;;;;;;;40.70;26.45;;;;;;;;;;5063175;28;20614;-86
2022/03/19 07:49:27;;;;;;;40.00;27.80;;;6.50;97.30;;;;;;5065542;28;20223;-85
2022/03/19 07:51:55;;;;;;;40.78;26.65;;;6.40;95.10;;;;;;5063020;28;20215;-84
2022/03/19 07:54:23;;;;;;;43.00;26.45;;;6.80;98.80;;;;;;5063424;28;20223;-85
2022/03/19 07:56:51;;;;;;;38.63;26.27;;;6.50;98.70;;;;;;5060967;28;20663;-86
2022/03/19 07:59:19;;;;;;;41.05;27.30;;;6.60;95.00;;;;;;5063248;28;20261;-86
2022/03/19 08:01:48;;;;;;;35.08;25.80;;;6.80;96.90;;;;;;5063944;28;20196;-85
2022/03/19 08:04:17;;;;;;;51.05;27.52;;;6.90;97.00;;;;;;5062808;28;20206;-88
2022/03/19 08:07:08;;;;;;;34.00;25.02;;;6.80;82.80;;;;;;5062328;28;20199;-89
2022/03/19 08:09:38;;;;;;;35.58;25.35;;;;;;;;;;5062551;28;20203;-88
2022/03/19 08:12:09;;;;;;;38.75;26.00;;;7.00;81.80;;;;;;5061170;28;20222;-87
2022/03/19 08:14:39;;;;;;;35.28;25.15;;;7.20;81.40;;;;;;5061145;28;20623;-87
2022/03/19 08:17:11;;;;;;;37.22;24.63;;;7.40;95.10;;;;;;5060292;28;20210;-88
2022/03/19 08:20:17;;;;;;;33.40;24.52;;;7.30;78.70;;;;;;5060335;28;20200;-87
2022/03/19 08:22:51;;;;;;;37.55;24.92;;;;;;;;;;5062595;28;20287;-87
2022/03/19 08:25:18;;;;;;;32.50;24.23;;;;;;;;;;5061677;28;20204;-86
2022/03/19 08:27:50;;;;;;;35.15;24.33;;;7.40;75.90;;;;;;5060253;28;20219;-86
2022/03/19 08:30:18;;;;;;;31.35;21.75;;;7.80;93.10;;;;;;5067331;28;20195;-85
2022/03/19 08:32:44;;;;;;;30.77;23.55;;;8.10;95.10;;;;;;5069111;28;20299;-84
2022/03/19 08:35:15;;;;;;;32.40;22.85;;;8.40;92.60;;;;;;5062443;28;20246;-85
2022/03/19 08:37:42;;;;;;;28.92;22.35;;;7.80;91.10;;;;;;5060260;28;20199;-86
2022/03/19 08:40:17;;;;;;;31.25;22.23;;;7.80;88.30;;;;;;5061562;28;20196;-85
2022/03/19 08:42:51;;;;;;;33.22;23.48;;;7.90;91.70;;;;;;5061898;28;20651;-85
2022/03/19 08:45:20;;;;;;;30.35;22.17;;;7.90;87.10;;;;;;5061394;28;20606;-84
2022/03/19 08:47:48;;;;;;;29.80;21.70;;;;;;;;;;5061276;28;20221;-85
2022/03/19 08:50:15;;;;;;;35.05;23.67;;;7.50;74.40;;;;;;5062062;28;20195;-84
2022/03/19 08:52:42;;;;;;;29.13;21.45;;;8.00;85.90;;;;;;5060776;28;20214;-86
2022/03/19 08:55:11;;;;;;;28.45;22.05;;;8.10;85.70;;;;;;5060316;28;20200;-84
2022/03/19 08:57:38;;;;;;;29.52;20.75;;;8.00;85.00;;;;;;5061402;28;20222;-84
2022/03/19 09:00:06;;;;;;;28.58;21.58;;;8.20;69.50;;;;;;5063149;28;20757;-86
2022/03/19 09:02:34;;;;;;;32.35;22.20;;;8.40;85.80;;;;;;5062253;28;20729;-85
2022/03/19 09:05:01;;;;;;;30.08;21.80;;;8.20;91.60;;;;;;5062186;28;20286;-85
2022/03/19 09:07:28;;;;;;;33.80;22.90;;;8.40;84.20;;;;;;5062318;28;20255;-85
2022/03/19 09:09:54;;;;;;;30.50;21.73;;;8.50;91.60;;;;;;5060539;28;20487;-84
2022/03/19 09:12:25;;;;;;;30.08;20.10;;;8.60;85.50;;;;;;5060261;28;20227;-86
2022/03/19 09:14:52;;;;;;;26.48;21.05;;;8.70;91.50;;;;;;5059820;28;20196;-86
2022/03/19 09:17:19;;;;;;;28.70;21.75;;;;;;;;;;5059473;28;20209;-84
2022/03/19 09:19:46;;;;;;;27.67;21.77;;;8.90;83.70;;;;;;5061683;28;20282;-85
2022/03/19 09:22:14;;;;;;;32.20;22.67;;;9.10;71.10;;;;;;5061431;28;20550;-86
2022/03/19 09:24:41;;;;;;;29.83;21.98;;;9.40;82.50;;;;;;5058758;28;20612;-87
2022/03/19 09:27:08;;;;;;;34.95;23.20;;;8.80;80.80;;;;;;5060587;28;20196;-88
2022/03/19 09:29:37;;;;;;;29.55;22.05;;;9.00;66.40;;;;;;5061266;28;20391;-88
2022/03/19 09:32:04;;;;;;;35.75;23.83;;;8.90;81.40;;;;;;5056240;28;20266;-89
2022/03/19 09:34:31;;;;;;;27.67;22.05;;;9.40;89.40;;;;;;5051459;28;20655;-87
2022/03/19 09:36:58;;;;;;;29.52;22.25;;;9.10;90.10;;;;;;5051591;28;20668;-86
2022/03/19 09:39:25;;;;;;;29.90;22.75;;;9.10;66.50;;;;;;5051802;28;20290;-89
2022/03/19 09:41:53;;;;;;;33.13;22.30;;;9.20;66.00;;;;;;5070650;28;20251;-86
2022/03/19 09:44:24;;;;;;;31.67;21.98;;;9.30;65.50;;;;;;5071926;28;20241;-86
2022/03/19 09:46:53;;;;;;;33.58;23.08;;;9.30;64.20;;;;;;5071260;28;20249;-86
2022/03/19 09:49:20;;;;;;;29.30;22.48;;;9.30;63.70;;;;;;5070972;28;20261;-88
2022/03/19 09:51:53;;;;;;;30.00;22.13;;;9.30;63.60;;;;;;5056476;28;20220;-87
2022/03/19 09:54:21;;;;;;;32.58;23.50;;;9.40;89.80;;;;;;5051539;28;20204;-87
2022/03/19 09:56:47;;;;;;;30.58;23.20;;;9.30;63.80;;;;;;5051397;28;20220;-87
2022/03/19 09:59:15;;;;;;;27.35;21.63;;;9.40;64.00;;;;;;5051269;28;20202;-87
2022/03/19 10:01:42;;;;;;;36.60;22.83;;;10.20;79.20;;;;;;5050869;28;20205;-87
2022/03/19 10:04:12;;;;;;;30.23;23.67;;;9.50;65.20;;;;;;5060679;28;20259;-87
2022/03/19 10:09:41;;;;;;;29.85;23.40;;;9.70;65.30;;;;;;5071146;28;20217;-87
2022/03/19 10:12:14;;;;;;;30.07;21.43;;;9.80;66.00;;;;;;5070708;28;20217;-87
2022/03/19 10:14:41;;;;;;;39.23;24.13;;;9.70;88.90;;;;;;5064174;28;20627;-86
2022/03/19 10:17:08;;;;;;;35.57;25.20;;;9.80;87.50;;;;;;5056809;28;20629;-86
2022/03/19 10:19:50;;;;;;;32.37;23.33;;;9.90;89.70;;;;;;5059900;28;20646;-87
2022/03/19 10:22:25;;;;;;;33.93;24.90;;;9.90;64.90;;;;;;5060683;28;20617;-88
2022/03/19 10:24:57;;;;;;;27.70;22.43;;;9.80;86.30;;;;;;5056885;28;20725;-87
2022/03/19 10:27:24;;;;;;;28.67;21.13;;;10.10;86.20;;;;;;5069541;28;20988;-86
2022/03/19 10:30:07;;;;;;;29.23;24.90;;;10.00;61.40;;;;;;5070911;28;20634;-87
2022/03/19 10:32:34;;;;;;;33.70;22.53;;;10.20;88.00;;;;;;5055437;28;20660;-87
2022/03/19 10:35:02;;;;;;;33.00;22.70;;;10.10;78.60;;;;;;5050536;28;20707;-86
2022/03/19 10:37:39;;;;;;;31.30;24.60;;;10.10;61.70;;;;;;5051083;28;20625;-86
2022/03/19 10:40:08;;;;;;;32.00;23.90;;;10.10;84.90;;;;;;5056633;28;20674;-87
2022/03/19 10:42:40;;;;;;;30.73;23.27;;;11.30;88.20;;;;;;5059286;28;20705;-86
2022/03/19 10:45:11;;;;;;;36.83;25.03;;;10.30;76.20;;;;;;5056894;28;20898;-87
2022/03/19 10:47:42;;;;;;;29.57;22.97;;;10.20;84.20;;;;;;5058861;28;20620;-87
2022/03/19 10:50:12;;;;;;;33.37;24.03;;;10.20;86.30;;;;;;5060717;28;20612;-87
2022/03/19 10:52:40;;;;;;;34.23;25.47;;;10.10;86.60;;;;;;5059004;28;20660;-88
2022/03/19 10:55:08;;;;;;;33.13;24.97;;;10.30;84.90;;;;;;5059702;28;20618;-86
2022/03/19 10:57:36;;;;;;;35.40;25.67;;;10.50;78.10;;;;;;5057718;28;20624;-87
2022/03/19 11:00:04;;;;;;;38.50;25.30;;;10.30;63.40;;;;;;5059357;28;20617;-87
2022/03/19 11:02:32;;;;;;;35.90;25.20;;;10.70;87.40;;;;;;5052444;28;20622;-87
2022/03/19 11:05:00;;;;;;;32.63;22.60;;;10.50;62.30;;;;;;5071189;28;20675;-86
2022/03/19 11:07:32;;;;;;;37.20;26.07;;;12.00;65.20;;;;;;5071602;28;20617;-87
2022/03/19 11:10:00;;;;;;;35.80;25.00;;;10.70;64.70;;;;;;5073449;28;20712;-86
2022/03/19 11:12:30;;;;;;;33.43;24.83;;;10.80;62.30;;;;;;5073260;28;20645;-88
2022/03/19 11:14:58;;;;;;;36.23;25.57;;;10.10;84.80;;;;;;5069792;28;20658;-85
2022/03/19 11:17:30;;;;;;;30.77;24.17;;;10.60;76.70;;;;;;5073849;28;20620;-86
2022/03/19 11:20:00;;;;;;;31.80;24.17;;;10.60;66.50;;;;;;5073818;28;20628;-85
2022/03/19 11:22:30;;;;;;;34.43;25.10;;;10.40;87.20;;;;;;5057284;28;20728;-86
2022/03/19 11:25:09;;;;;;;26.50;19.87;;;10.60;69.70;;;;;;5055311;28;20637;-86
2022/03/19 11:27:38;;;;;;;22.87;17.93;;;10.80;59.80;;;;;;5056248;28;20679;-87
2022/03/19 11:30:07;;;;;;;27.73;18.57;;;11.40;60.30;;;;;;5054189;28;20649;-86
2022/03/19 11:32:36;;;;;;;27.87;19.70;;;;;;;;;;5066953;28;20681;-86
2022/03/19 11:35:08;;;;;;;24.43;18.27;;;10.50;58.80;;;;;;5071053;28;20634;-85
2022/03/19 11:38:01;;;;;;;21.17;15.80;;;11.00;80.40;;;;;;5057424;28;20664;-85
2022/03/19 11:40:32;;;;;;;20.67;15.27;;;10.70;80.40;;;;;;5061404;28;20716;-86
2022/03/19 11:43:04;;;;;;;18.27;13.20;;;10.70;79.80;;;;;;5057837;28;20716;-85
2022/03/19 11:45:52;;;;;;;17.90;14.07;;;10.70;57.00;;;;;;5062208;28;20608;-85
2022/03/19 11:48:50;;;;;;;15.90;12.53;;;10.70;76.00;;;;;;5051835;28;20618;-86
2022/03/19 11:51:38;;;;;;;18.93;14.70;;;11.20;78.80;;;;;;4992217;28;20735;-85
2022/03/19 11:54:09;;;;;;;16.97;12.77;;;11.20;70.40;;;;;;5057052;28;20707;-86
2022/03/19 11:57:08;;;;;;;19.90;13.03;;;11.20;80.20;;;;;;5066160;28;20622;-85
2022/03/19 11:59:48;;;;;;;18.73;12.93;;;11.30;74.20;;;;;;5054002;28;20624;-86
2022/03/19 12:02:15;;;;;;;19.63;13.20;;;11.30;78.90;;;;;;5057644;28;21191;-86
2022/03/19 12:04:51;;;;;;;18.80;11.83;;;11.20;79.00;;;;;;5070563;28;20626;-86
2022/03/19 12:07:41;;;;;;;18.50;12.93;;;11.00;75.00;;;;;;5063545;28;20621;-86
2022/03/19 12:10:13;;;;;;;17.80;11.63;;;10.60;60.10;;;;;;5055530;28;20713;-85
2022/03/19 12:12:44;;;;;;;16.17;11.10;;;9.20;57.60;;;;;;5052965;28;20680;-87
2022/03/19 12:15:49;;;;;;;15.47;10.83;;;11.60;72.50;;;;;;5059105;28;20613;-86
2022/03/19 12:18:27;;;;;;;17.87;13.90;;;11.10;68.60;;;;;;5068601;28;20616;-85
2022/03/19 12:20:56;;;;;;;16.47;11.80;;;11.00;56.40;;;;;;5072253;28;20951;-87
2022/03/19 12:23:24;;;;;;;14.07;10.93;;;11.00;69.60;;;;;;5071237;28;21173;-86
2022/03/19 12:26:03;;;;;;;14.43;10.53;;;11.10;63.40;;;;;;5055410;28;20737;-86
2022/03/19 12:28:31;;;;;;;13.60;10.33;;;10.80;74.60;;;;;;5063553;28;20620;-85
2022/03/19 12:31:10;;;;;;;11.13;9.97;;;10.80;77.50;;;;;;5072701;28;20682;-85
2022/03/19 12:33:38;;;;;;;15.03;9.67;;;;;;;;;;5072835;28;20652;-87
2022/03/19 12:36:13;;;;;;;14.07;9.67;;;11.10;56.00;;;;;;5070241;28;21197;-86
2022/03/19 12:38:40;;;;;;;16.53;9.93;;;;;;;;;;5063189;28;20652;-86
2022/03/19 12:41:28;;;;;;;13.40;9.07;;;11.40;53.10;;;;;;5060984;28;21035;-87
2022/03/19 12:43:55;;;;;;;12.57;9.57;;;10.90;72.40;;;;;;5063355;28;20614;-88
2022/03/19 12:46:27;;;;;;;13.27;10.00;;;11.00;71.40;;;;;;5062690;28;20723;-87
2022/03/19 12:49:02;;;;;;;17.10;9.80;;;11.00;53.30;;;;;;5062383;28;20660;-86
2022/03/19 12:51:29;;;;;;;17.03;10.30;;;;;;;;;;5061380;28;20664;-86
2022/03/19 12:53:57;;;;;;;13.93;9.60;;;;;;;;;;5069298;28;20649;-86
2022/03/19 12:56:27;;;;;;;14.10;10.60;;;11.20;53.60;;;;;;5063510;28;21229;-86
2022/03/19 12:58:59;;;;;;;15.83;10.20;;;11.30;66.30;;;;;;5060825;28;20629;-87
2022/03/19 13:01:28;;;;;;;13.53;9.00;;;11.40;74.30;;;;;;5072332;28;20669;-87
2022/03/19 13:04:01;;;;;;;12.50;8.93;;;11.30;64.10;;;;;;5062309;28;20650;-87
2022/03/19 13:06:35;;;;;;;13.83;8.40;;;10.90;56.50;;;;;;5051451;28;20730;-87
2022/03/19 13:09:07;;;;;;;11.97;8.50;;;11.00;53.10;;;;;;5051714;28;20968;-86
2022/03/19 13:11:47;;;;;;;12.67;8.87;;;10.90;52.90;;;;;;5051475;28;20628;-87